sensor_id;sensor_type;location;lat;lon;timestamp;temperature;humidity
30381;DHT22;17169;50.966;11.038;2023-07-13T00:00:54;20.90;70.00
30381;DHT22;17169;50.966;11.038;2023-07-13T00:03:57;20.90;69.80
30381;DHT22;17169;50.966;11.038;2023-07-13T00:07:00;20.80;69.90
30381;DHT22;17169;50.966;11.038;2023-07-13T00:10:04;20.70;70.40
30381;DHT22;17169;50.966;11.038;2023-07-13T00:13:07;20.60;70.20
30381;DHT22;17169;50.966;11.038;2023-07-13T00:16:11;20.60;71.10
30381;DHT22;17169;50.966;11.038;2023-07-13T00:19:14;20.50;71.40
30381;DHT22;17169;50.966;11.038;2023-07-13T00:22:17;20.40;71.80
30381;DHT22;17169;50.966;11.038;2023-07-13T00:25:21;20.40;72.00
30381;DHT22;17169;50.966;11.038;2023-07-13T00:28:25;20.30;72.20
30381;DHT22;17169;50.966;11.038;2023-07-13T00:31:27;20.30;72.60
30381;DHT22;17169;50.966;11.038;2023-07-13T00:34:29;20.20;72.90
30381;DHT22;17169;50.966;11.038;2023-07-13T00:37:32;20.10;73.00
30381;DHT22;17169;50.966;11.038;2023-07-13T00:40:38;20.00;72.90
30381;DHT22;17169;50.966;11.038;2023-07-13T00:43:40;20.00;73.40
30381;DHT22;17169;50.966;11.038;2023-07-13T00:46:42;19.90;73.30
30381;DHT22;17169;50.966;11.038;2023-07-13T00:49:45;19.80;73.50
30381;DHT22;17169;50.966;11.038;2023-07-13T00:52:51;19.90;73.80
30381;DHT22;17169;50.966;11.038;2023-07-13T00:55:56;19.90;73.80
30381;DHT22;17169;50.966;11.038;2023-07-13T00:59:00;19.90;73.50
30381;DHT22;17169;50.966;11.038;2023-07-13T01:02:03;19.90;73.50
30381;DHT22;17169;50.966;11.038;2023-07-13T01:05:09;19.80;73.60
30381;DHT22;17169;50.966;11.038;2023-07-13T01:08:11;19.80;74.10
30381;DHT22;17169;50.966;11.038;2023-07-13T01:11:18;19.70;74.30
30381;DHT22;17169;50.966;11.038;2023-07-13T01:14:21;19.80;74.40
30381;DHT22;17169;50.966;11.038;2023-07-13T01:17:23;19.70;74.40
30381;DHT22;17169;50.966;11.038;2023-07-13T01:20:26;19.70;74.30
30381;DHT22;17169;50.966;11.038;2023-07-13T01:23:31;19.70;74.50
30381;DHT22;17169;50.966;11.038;2023-07-13T01:26:33;19.70;74.70
30381;DHT22;17169;50.966;11.038;2023-07-13T01:29:37;19.70;74.90
30381;DHT22;17169;50.966;11.038;2023-07-13T01:32:42;19.70;75.10
30381;DHT22;17169;50.966;11.038;2023-07-13T01:35:46;19.60;75.10
30381;DHT22;17169;50.966;11.038;2023-07-13T01:38:50;19.50;75.10
30381;DHT22;17169;50.966;11.038;2023-07-13T01:41:52;19.50;75.30
30381;DHT22;17169;50.966;11.038;2023-07-13T01:44:55;19.40;75.50
30381;DHT22;17169;50.966;11.038;2023-07-13T01:47:57;19.40;75.70
30381;DHT22;17169;50.966;11.038;2023-07-13T01:50:59;19.30;75.60
30381;DHT22;17169;50.966;11.038;2023-07-13T01:54:03;19.30;75.40
30381;DHT22;17169;50.966;11.038;2023-07-13T01:57:06;19.40;75.50
30381;DHT22;17169;50.966;11.038;2023-07-13T02:00:09;19.50;74.40
30381;DHT22;17169;50.966;11.038;2023-07-13T02:07:01;19.70;74.60
30381;DHT22;17169;50.966;11.038;2023-07-13T02:10:06;19.80;73.90
30381;DHT22;17169;50.966;11.038;2023-07-13T02:13:09;20.00;73.70
30381;DHT22;17169;50.966;11.038;2023-07-13T02:16:11;20.00;73.50
30381;DHT22;17169;50.966;11.038;2023-07-13T02:19:13;20.10;73.50
30381;DHT22;17169;50.966;11.038;2023-07-13T02:22:16;20.10;73.40
30381;DHT22;17169;50.966;11.038;2023-07-13T02:25:19;20.20;73.20
30381;DHT22;17169;50.966;11.038;2023-07-13T02:28:22;20.20;73.00
30381;DHT22;17169;50.966;11.038;2023-07-13T02:31:24;20.30;73.00
30381;DHT22;17169;50.966;11.038;2023-07-13T02:34:27;20.30;72.90
30381;DHT22;17169;50.966;11.038;2023-07-13T02:37:29;20.30;72.90
30381;DHT22;17169;50.966;11.038;2023-07-13T02:40:33;20.30;72.90
30381;DHT22;17169;50.966;11.038;2023-07-13T02:43:38;20.30;73.10
30381;DHT22;17169;50.966;11.038;2023-07-13T02:46:41;20.40;72.80
30381;DHT22;17169;50.966;11.038;2023-07-13T02:49:43;20.30;73.00
30381;DHT22;17169;50.966;11.038;2023-07-13T02:52:45;20.40;72.80
30381;DHT22;17169;50.966;11.038;2023-07-13T02:55:49;20.30;72.80
30381;DHT22;17169;50.966;11.038;2023-07-13T02:58:52;20.30;72.90
30381;DHT22;17169;50.966;11.038;2023-07-13T03:01:54;20.30;72.70
30381;DHT22;17169;50.966;11.038;2023-07-13T03:05:00;20.20;72.90
30381;DHT22;17169;50.966;11.038;2023-07-13T03:08:02;20.20;73.20
30381;DHT22;17169;50.966;11.038;2023-07-13T03:11:09;20.20;73.30
30381;DHT22;17169;50.966;11.038;2023-07-13T03:14:12;20.00;74.10
30381;DHT22;17169;50.966;11.038;2023-07-13T03:17:15;19.90;74.70
30381;DHT22;17169;50.966;11.038;2023-07-13T03:20:17;19.80;75.30
30381;DHT22;17169;50.966;11.038;2023-07-13T03:23:21;19.80;75.70
30381;DHT22;17169;50.966;11.038;2023-07-13T03:26:25;19.60;76.20
30381;DHT22;17169;50.966;11.038;2023-07-13T03:29:27;19.50;76.80
30381;DHT22;17169;50.966;11.038;2023-07-13T03:32:30;19.40;77.60
30381;DHT22;17169;50.966;11.038;2023-07-13T03:35:32;19.30;77.70
30381;DHT22;17169;50.966;11.038;2023-07-13T03:38:34;19.20;78.10
30381;DHT22;17169;50.966;11.038;2023-07-13T03:41:38;19.20;77.90
30381;DHT22;17169;50.966;11.038;2023-07-13T03:44:41;19.20;77.80
30381;DHT22;17169;50.966;11.038;2023-07-13T03:47:46;19.20;78.10
30381;DHT22;17169;50.966;11.038;2023-07-13T03:50:49;19.10;78.00
30381;DHT22;17169;50.966;11.038;2023-07-13T03:53:51;19.10;78.10
30381;DHT22;17169;50.966;11.038;2023-07-13T03:56:55;19.00;78.40
30381;DHT22;17169;50.966;11.038;2023-07-13T03:59:57;18.90;78.50
30381;DHT22;17169;50.966;11.038;2023-07-13T04:03:00;18.90;79.00
30381;DHT22;17169;50.966;11.038;2023-07-13T04:06:04;18.80;79.40
30381;DHT22;17169;50.966;11.038;2023-07-13T04:09:07;18.70;79.60
30381;DHT22;17169;50.966;11.038;2023-07-13T04:12:11;18.70;80.00
30381;DHT22;17169;50.966;11.038;2023-07-13T04:15:14;18.70;80.10
30381;DHT22;17169;50.966;11.038;2023-07-13T04:18:16;18.70;80.20
30381;DHT22;17169;50.966;11.038;2023-07-13T04:21:20;18.70;80.40
30381;DHT22;17169;50.966;11.038;2023-07-13T04:24:23;18.70;80.40
30381;DHT22;17169;50.966;11.038;2023-07-13T04:27:27;18.80;80.20
30381;DHT22;17169;50.966;11.038;2023-07-13T04:30:29;18.90;80.40
30381;DHT22;17169;50.966;11.038;2023-07-13T04:33:32;18.90;80.00
30381;DHT22;17169;50.966;11.038;2023-07-13T04:36:34;19.00;79.90
30381;DHT22;17169;50.966;11.038;2023-07-13T04:39:38;19.10;79.20
30381;DHT22;17169;50.966;11.038;2023-07-13T04:42:42;19.00;79.50
30381;DHT22;17169;50.966;11.038;2023-07-13T04:45:44;19.00;79.40
30381;DHT22;17169;50.966;11.038;2023-07-13T04:48:48;18.90;79.70
30381;DHT22;17169;50.966;11.038;2023-07-13T04:51:52;19.00;79.80
30381;DHT22;17169;50.966;11.038;2023-07-13T04:54:55;19.00;79.60
30381;DHT22;17169;50.966;11.038;2023-07-13T04:57:59;19.00;79.90
30381;DHT22;17169;50.966;11.038;2023-07-13T05:01:02;19.10;79.80
30381;DHT22;17169;50.966;11.038;2023-07-13T05:04:05;19.20;79.70
30381;DHT22;17169;50.966;11.038;2023-07-13T05:07:08;19.40;79.60
30381;DHT22;17169;50.966;11.038;2023-07-13T05:10:10;19.50;78.60
30381;DHT22;17169;50.966;11.038;2023-07-13T05:13:14;19.60;78.70
30381;DHT22;17169;50.966;11.038;2023-07-13T05:16:17;19.70;78.30
30381;DHT22;17169;50.966;11.038;2023-07-13T05:19:20;19.80;78.80
30381;DHT22;17169;50.966;11.038;2023-07-13T05:22:22;19.90;78.10
30381;DHT22;17169;50.966;11.038;2023-07-13T05:25:24;19.80;77.90
30381;DHT22;17169;50.966;11.038;2023-07-13T05:28:30;19.90;78.10
30381;DHT22;17169;50.966;11.038;2023-07-13T05:31:32;19.90;78.20
30381;DHT22;17169;50.966;11.038;2023-07-13T05:34:35;20.00;77.90
30381;DHT22;17169;50.966;11.038;2023-07-13T05:37:37;20.00;77.90
30381;DHT22;17169;50.966;11.038;2023-07-13T05:40:42;20.10;77.90
30381;DHT22;17169;50.966;11.038;2023-07-13T05:43:46;20.30;77.50
30381;DHT22;17169;50.966;11.038;2023-07-13T05:46:48;20.40;77.90
30381;DHT22;17169;50.966;11.038;2023-07-13T05:49:51;20.40;77.60
30381;DHT22;17169;50.966;11.038;2023-07-13T05:52:53;20.40;77.60
30381;DHT22;17169;50.966;11.038;2023-07-13T05:55:55;20.50;77.30
30381;DHT22;17169;50.966;11.038;2023-07-13T05:58:59;20.40;77.50
30381;DHT22;17169;50.966;11.038;2023-07-13T06:02:02;20.50;77.00
30381;DHT22;17169;50.966;11.038;2023-07-13T06:05:05;20.50;76.80
30381;DHT22;17169;50.966;11.038;2023-07-13T06:08:07;20.70;76.70
30381;DHT22;17169;50.966;11.038;2023-07-13T06:11:13;20.80;76.90
30381;DHT22;17169;50.966;11.038;2023-07-13T06:14:17;21.00;76.40
30381;DHT22;17169;50.966;11.038;2023-07-13T06:17:20;21.20;75.50
30381;DHT22;17169;50.966;11.038;2023-07-13T06:20:22;21.40;74.80
30381;DHT22;17169;50.966;11.038;2023-07-13T06:23:25;21.50;74.50
30381;DHT22;17169;50.966;11.038;2023-07-13T06:26:27;21.60;73.80
30381;DHT22;17169;50.966;11.038;2023-07-13T06:29:31;21.70;74.00
30381;DHT22;17169;50.966;11.038;2023-07-13T06:32:34;21.70;73.40
30381;DHT22;17169;50.966;11.038;2023-07-13T06:35:36;21.70;72.70
30381;DHT22;17169;50.966;11.038;2023-07-13T06:38:38;21.80;73.30
30381;DHT22;17169;50.966;11.038;2023-07-13T06:41:41;22.00;72.60
30381;DHT22;17169;50.966;11.038;2023-07-13T06:44:45;22.00;72.20
30381;DHT22;17169;50.966;11.038;2023-07-13T06:47:47;22.10;71.60
30381;DHT22;17169;50.966;11.038;2023-07-13T06:50:50;22.20;72.00
30381;DHT22;17169;50.966;11.038;2023-07-13T06:53:54;22.20;70.60
30381;DHT22;17169;50.966;11.038;2023-07-13T06:56:57;22.30;71.30
30381;DHT22;17169;50.966;11.038;2023-07-13T07:00:00;22.40;70.10
30381;DHT22;17169;50.966;11.038;2023-07-13T07:03:03;22.30;70.10
30381;DHT22;17169;50.966;11.038;2023-07-13T07:06:13;22.30;70.80
30381;DHT22;17169;50.966;11.038;2023-07-13T07:09:16;22.40;70.00
30381;DHT22;17169;50.966;11.038;2023-07-13T07:12:18;22.50;69.80
30381;DHT22;17169;50.966;11.038;2023-07-13T07:15:22;22.70;69.30
30381;DHT22;17169;50.966;11.038;2023-07-13T07:18:24;22.80;69.00
30381;DHT22;17169;50.966;11.038;2023-07-13T07:21:27;22.90;68.10
30381;DHT22;17169;50.966;11.038;2023-07-13T07:24:29;22.90;68.40
30381;DHT22;17169;50.966;11.038;2023-07-13T07:27:32;22.90;68.50
30381;DHT22;17169;50.966;11.038;2023-07-13T07:30:36;23.00;68.60
30381;DHT22;17169;50.966;11.038;2023-07-13T07:33:39;23.10;68.00
30381;DHT22;17169;50.966;11.038;2023-07-13T07:36:41;23.10;68.10
30381;DHT22;17169;50.966;11.038;2023-07-13T07:39:43;23.20;68.70
30381;DHT22;17169;50.966;11.038;2023-07-13T07:42:46;23.30;68.20
30381;DHT22;17169;50.966;11.038;2023-07-13T07:45:49;23.20;68.70
30381;DHT22;17169;50.966;11.038;2023-07-13T07:48:52;23.40;68.50
30381;DHT22;17169;50.966;11.038;2023-07-13T07:51:54;23.50;68.30
30381;DHT22;17169;50.966;11.038;2023-07-13T07:54:57;23.70;67.80
30381;DHT22;17169;50.966;11.038;2023-07-13T07:57:59;23.80;67.60
30381;DHT22;17169;50.966;11.038;2023-07-13T08:01:04;23.70;67.50
30381;DHT22;17169;50.966;11.038;2023-07-13T08:04:07;23.70;67.00
30381;DHT22;17169;50.966;11.038;2023-07-13T08:07:10;23.60;65.90
30381;DHT22;17169;50.966;11.038;2023-07-13T08:10:12;23.60;66.10
30381;DHT22;17169;50.966;11.038;2023-07-13T08:13:15;23.60;66.10
30381;DHT22;17169;50.966;11.038;2023-07-13T08:16:18;23.70;66.20
30381;DHT22;17169;50.966;11.038;2023-07-13T08:19:21;23.70;66.00
30381;DHT22;17169;50.966;11.038;2023-07-13T08:22:23;23.70;65.60
30381;DHT22;17169;50.966;11.038;2023-07-13T08:25:25;23.90;65.00
30381;DHT22;17169;50.966;11.038;2023-07-13T08:28:28;23.90;62.60
30381;DHT22;17169;50.966;11.038;2023-07-13T08:31:32;23.90;63.60
30381;DHT22;17169;50.966;11.038;2023-07-13T08:34:35;23.90;64.00
30381;DHT22;17169;50.966;11.038;2023-07-13T08:37:37;23.90;63.50
30381;DHT22;17169;50.966;11.038;2023-07-13T08:40:40;23.90;62.60
30381;DHT22;17169;50.966;11.038;2023-07-13T08:43:46;23.90;63.00
30381;DHT22;17169;50.966;11.038;2023-07-13T08:46:53;23.90;61.80
30381;DHT22;17169;50.966;11.038;2023-07-13T08:49:56;24.10;61.00
30381;DHT22;17169;50.966;11.038;2023-07-13T08:53:01;24.10;60.10
30381;DHT22;17169;50.966;11.038;2023-07-13T08:56:09;24.20;59.40
30381;DHT22;17169;50.966;11.038;2023-07-13T08:59:14;24.20;59.40
30381;DHT22;17169;50.966;11.038;2023-07-13T09:02:26;24.30;60.40
30381;DHT22;17169;50.966;11.038;2023-07-13T09:05:31;24.40;58.60
30381;DHT22;17169;50.966;11.038;2023-07-13T09:08:48;24.50;58.80
30381;DHT22;17169;50.966;11.038;2023-07-13T09:11:58;24.50;58.60
30381;DHT22;17169;50.966;11.038;2023-07-13T09:15:07;24.30;58.10
30381;DHT22;17169;50.966;11.038;2023-07-13T09:18:21;24.10;58.80
30381;DHT22;17169;50.966;11.038;2023-07-13T09:21:29;23.90;58.30
30381;DHT22;17169;50.966;11.038;2023-07-13T09:24:37;24.00;58.20
30381;DHT22;17169;50.966;11.038;2023-07-13T09:27:43;24.20;57.30
30381;DHT22;17169;50.966;11.038;2023-07-13T09:30:51;24.40;56.90
30381;DHT22;17169;50.966;11.038;2023-07-13T09:33:56;24.40;56.10
30381;DHT22;17169;50.966;11.038;2023-07-13T09:36:59;24.40;56.40
30381;DHT22;17169;50.966;11.038;2023-07-13T09:40:02;24.50;56.60
30381;DHT22;17169;50.966;11.038;2023-07-13T09:43:08;24.70;55.60
30381;DHT22;17169;50.966;11.038;2023-07-13T09:46:20;24.60;55.70
30381;DHT22;17169;50.966;11.038;2023-07-13T09:49:26;24.80;55.60
30381;DHT22;17169;50.966;11.038;2023-07-13T09:52:40;25.00;56.40
30381;DHT22;17169;50.966;11.038;2023-07-13T09:55:45;25.30;55.20
30381;DHT22;17169;50.966;11.038;2023-07-13T09:58:48;25.30;54.90
30381;DHT22;17169;50.966;11.038;2023-07-13T10:01:50;25.20;55.50
30381;DHT22;17169;50.966;11.038;2023-07-13T10:04:59;25.40;54.40
30381;DHT22;17169;50.966;11.038;2023-07-13T10:08:01;25.40;53.50
30381;DHT22;17169;50.966;11.038;2023-07-13T10:11:10;25.50;54.00
30381;DHT22;17169;50.966;11.038;2023-07-13T10:14:16;25.70;54.10
30381;DHT22;17169;50.966;11.038;2023-07-13T10:17:24;25.90;54.00
30381;DHT22;17169;50.966;11.038;2023-07-13T10:20:29;25.70;54.50
30381;DHT22;17169;50.966;11.038;2023-07-13T10:23:33;25.70;55.10
30381;DHT22;17169;50.966;11.038;2023-07-13T10:26:39;25.90;55.20
30381;DHT22;17169;50.966;11.038;2023-07-13T10:29:47;25.90;55.40
30381;DHT22;17169;50.966;11.038;2023-07-13T10:32:50;26.00;55.60
30381;DHT22;17169;50.966;11.038;2023-07-13T10:36:14;26.30;56.00
30381;DHT22;17169;50.966;11.038;2023-07-13T10:39:21;26.50;53.60
30381;DHT22;17169;50.966;11.038;2023-07-13T10:42:29;26.60;54.10
30381;DHT22;17169;50.966;11.038;2023-07-13T10:45:35;26.70;53.90
30381;DHT22;17169;50.966;11.038;2023-07-13T10:48:39;26.60;53.30
30381;DHT22;17169;50.966;11.038;2023-07-13T10:51:44;26.70;53.70
30381;DHT22;17169;50.966;11.038;2023-07-13T10:54:47;26.70;52.70
30381;DHT22;17169;50.966;11.038;2023-07-13T10:57:49;26.60;53.10
30381;DHT22;17169;50.966;11.038;2023-07-13T11:01:06;26.50;53.30
30381;DHT22;17169;50.966;11.038;2023-07-13T11:04:12;26.40;53.20
30381;DHT22;17169;50.966;11.038;2023-07-13T11:07:21;26.30;53.40
30381;DHT22;17169;50.966;11.038;2023-07-13T11:10:52;26.30;52.70
30381;DHT22;17169;50.966;11.038;2023-07-13T11:13:58;26.30;52.60
30381;DHT22;17169;50.966;11.038;2023-07-13T11:17:32;26.30;53.40
30381;DHT22;17169;50.966;11.038;2023-07-13T11:20:38;26.60;53.00
30381;DHT22;17169;50.966;11.038;2023-07-13T11:23:45;26.80;52.40
30381;DHT22;17169;50.966;11.038;2023-07-13T11:26:53;26.90;52.30
30381;DHT22;17169;50.966;11.038;2023-07-13T11:30:18;27.00;52.40
30381;DHT22;17169;50.966;11.038;2023-07-13T11:33:24;27.20;51.60
30381;DHT22;17169;50.966;11.038;2023-07-13T11:36:36;27.00;51.90
30381;DHT22;17169;50.966;11.038;2023-07-13T11:39:44;26.90;51.40
30381;DHT22;17169;50.966;11.038;2023-07-13T11:42:48;26.80;52.40
30381;DHT22;17169;50.966;11.038;2023-07-13T11:45:50;26.90;52.20
30381;DHT22;17169;50.966;11.038;2023-07-13T11:48:54;26.60;51.80
30381;DHT22;17169;50.966;11.038;2023-07-13T11:51:57;26.60;52.10
30381;DHT22;17169;50.966;11.038;2023-07-13T11:55:03;26.70;51.90
30381;DHT22;17169;50.966;11.038;2023-07-13T11:58:09;26.60;50.90
30381;DHT22;17169;50.966;11.038;2023-07-13T12:01:18;26.60;51.50
30381;DHT22;17169;50.966;11.038;2023-07-13T12:04:24;27.00;51.50
30381;DHT22;17169;50.966;11.038;2023-07-13T12:07:30;26.90;51.80
30381;DHT22;17169;50.966;11.038;2023-07-13T12:10:34;27.40;51.50
30381;DHT22;17169;50.966;11.038;2023-07-13T12:13:37;27.60;51.40
30381;DHT22;17169;50.966;11.038;2023-07-13T12:16:40;27.60;50.40
30381;DHT22;17169;50.966;11.038;2023-07-13T12:19:43;27.10;50.50
30381;DHT22;17169;50.966;11.038;2023-07-13T12:22:46;27.00;51.30
30381;DHT22;17169;50.966;11.038;2023-07-13T12:25:50;27.10;51.50
30381;DHT22;17169;50.966;11.038;2023-07-13T12:28:55;27.10;51.30
30381;DHT22;17169;50.966;11.038;2023-07-13T12:31:57;27.10;51.60
30381;DHT22;17169;50.966;11.038;2023-07-13T12:35:12;27.30;51.30
30381;DHT22;17169;50.966;11.038;2023-07-13T12:38:16;27.30;51.00
30381;DHT22;17169;50.966;11.038;2023-07-13T12:41:20;27.40;51.00
30381;DHT22;17169;50.966;11.038;2023-07-13T12:44:27;27.50;50.50
30381;DHT22;17169;50.966;11.038;2023-07-13T12:47:30;27.90;52.10
30381;DHT22;17169;50.966;11.038;2023-07-13T12:50:37;28.30;49.90
30381;DHT22;17169;50.966;11.038;2023-07-13T12:53:43;28.00;49.90
30381;DHT22;17169;50.966;11.038;2023-07-13T12:56:52;28.10;50.50
30381;DHT22;17169;50.966;11.038;2023-07-13T12:59:56;28.20;49.60
30381;DHT22;17169;50.966;11.038;2023-07-13T13:03:02;28.00;50.10
30381;DHT22;17169;50.966;11.038;2023-07-13T13:06:17;28.00;51.20
30381;DHT22;17169;50.966;11.038;2023-07-13T13:09:20;27.90;50.70
30381;DHT22;17169;50.966;11.038;2023-07-13T13:12:24;27.90;50.00
30381;DHT22;17169;50.966;11.038;2023-07-13T13:15:27;27.90;50.20
30381;DHT22;17169;50.966;11.038;2023-07-13T13:18:31;28.00;50.10
30381;DHT22;17169;50.966;11.038;2023-07-13T13:21:33;28.20;49.90
30381;DHT22;17169;50.966;11.038;2023-07-13T13:24:36;28.70;49.80
30381;DHT22;17169;50.966;11.038;2023-07-13T13:27:40;29.20;48.80
30381;DHT22;17169;50.966;11.038;2023-07-13T13:30:43;29.70;49.10
30381;DHT22;17169;50.966;11.038;2023-07-13T13:33:46;30.10;48.70
30381;DHT22;17169;50.966;11.038;2023-07-13T13:36:49;29.90;48.10
30381;DHT22;17169;50.966;11.038;2023-07-13T13:39:53;30.10;47.70
30381;DHT22;17169;50.966;11.038;2023-07-13T13:42:57;30.30;47.20
30381;DHT22;17169;50.966;11.038;2023-07-13T13:46:00;30.30;47.80
30381;DHT22;17169;50.966;11.038;2023-07-13T13:49:02;30.80;48.20
30381;DHT22;17169;50.966;11.038;2023-07-13T13:52:07;31.40;46.70
30381;DHT22;17169;50.966;11.038;2023-07-13T13:55:12;31.80;45.20
30381;DHT22;17169;50.966;11.038;2023-07-13T13:58:16;32.10;44.80
30381;DHT22;17169;50.966;11.038;2023-07-13T14:01:20;32.70;45.00
30381;DHT22;17169;50.966;11.038;2023-07-13T14:04:23;34.30;45.50
30381;DHT22;17169;50.966;11.038;2023-07-13T14:07:25;35.50;42.70
30381;DHT22;17169;50.966;11.038;2023-07-13T14:10:28;35.70;41.70
30381;DHT22;17169;50.966;11.038;2023-07-13T14:13:36;36.70;42.30
30381;DHT22;17169;50.966;11.038;2023-07-13T14:16:40;37.10;41.70
30381;DHT22;17169;50.966;11.038;2023-07-13T14:19:43;37.00;40.70
30381;DHT22;17169;50.966;11.038;2023-07-13T14:22:47;36.70;41.50
30381;DHT22;17169;50.966;11.038;2023-07-13T14:25:49;36.90;41.50
30381;DHT22;17169;50.966;11.038;2023-07-13T14:28:55;36.70;40.80
30381;DHT22;17169;50.966;11.038;2023-07-13T14:31:59;38.00;39.90
30381;DHT22;17169;50.966;11.038;2023-07-13T14:35:02;38.40;39.20
30381;DHT22;17169;50.966;11.038;2023-07-13T14:38:04;38.80;39.60
30381;DHT22;17169;50.966;11.038;2023-07-13T14:41:08;38.90;38.30
30381;DHT22;17169;50.966;11.038;2023-07-13T14:44:13;39.90;38.70
30381;DHT22;17169;50.966;11.038;2023-07-13T14:47:16;40.80;38.70
30381;DHT22;17169;50.966;11.038;2023-07-13T14:50:20;39.50;37.50
30381;DHT22;17169;50.966;11.038;2023-07-13T14:53:24;40.00;38.50
30381;DHT22;17169;50.966;11.038;2023-07-13T14:56:27;39.40;37.60
30381;DHT22;17169;50.966;11.038;2023-07-13T14:59:31;37.80;38.00
30381;DHT22;17169;50.966;11.038;2023-07-13T15:02:36;38.70;38.90
30381;DHT22;17169;50.966;11.038;2023-07-13T15:05:39;40.20;37.70
30381;DHT22;17169;50.966;11.038;2023-07-13T15:08:42;40.70;37.70
30381;DHT22;17169;50.966;11.038;2023-07-13T15:11:44;41.70;38.30
30381;DHT22;17169;50.966;11.038;2023-07-13T15:14:48;42.40;37.10
30381;DHT22;17169;50.966;11.038;2023-07-13T15:17:50;42.30;36.80
30381;DHT22;17169;50.966;11.038;2023-07-13T15:20:53;41.80;36.30
30381;DHT22;17169;50.966;11.038;2023-07-13T15:23:57;41.60;36.90
30381;DHT22;17169;50.966;11.038;2023-07-13T15:26:59;40.60;36.60
30381;DHT22;17169;50.966;11.038;2023-07-13T15:30:03;39.50;37.20
30381;DHT22;17169;50.966;11.038;2023-07-13T15:33:11;37.80;38.40
30381;DHT22;17169;50.966;11.038;2023-07-13T15:36:15;36.40;40.20
30381;DHT22;17169;50.966;11.038;2023-07-13T15:39:18;37.20;39.60
30381;DHT22;17169;50.966;11.038;2023-07-13T15:42:22;35.70;39.90
30381;DHT22;17169;50.966;11.038;2023-07-13T15:45:26;37.10;40.50
30381;DHT22;17169;50.966;11.038;2023-07-13T15:48:29;38.30;39.50
30381;DHT22;17169;50.966;11.038;2023-07-13T15:51:34;37.80;39.90
30381;DHT22;17169;50.966;11.038;2023-07-13T15:54:38;37.20;39.50
30381;DHT22;17169;50.966;11.038;2023-07-13T15:57:43;35.80;40.50
30381;DHT22;17169;50.966;11.038;2023-07-13T16:00:48;36.00;41.30
30381;DHT22;17169;50.966;11.038;2023-07-13T16:03:52;37.20;40.40
30381;DHT22;17169;50.966;11.038;2023-07-13T16:06:54;37.50;40.80
30381;DHT22;17169;50.966;11.038;2023-07-13T16:09:57;38.10;39.60
30381;DHT22;17169;50.966;11.038;2023-07-13T16:12:59;37.20;39.30
30381;DHT22;17169;50.966;11.038;2023-07-13T16:16:07;36.10;40.90
30381;DHT22;17169;50.966;11.038;2023-07-13T16:19:10;36.40;41.30
30381;DHT22;17169;50.966;11.038;2023-07-13T16:22:15;37.90;40.40
30381;DHT22;17169;50.966;11.038;2023-07-13T16:25:19;36.40;40.50
30381;DHT22;17169;50.966;11.038;2023-07-13T16:28:22;37.60;40.50
30381;DHT22;17169;50.966;11.038;2023-07-13T16:31:30;37.10;40.20
30381;DHT22;17169;50.966;11.038;2023-07-13T16:34:35;37.80;40.30
30381;DHT22;17169;50.966;11.038;2023-07-13T16:37:38;37.20;39.80
30381;DHT22;17169;50.966;11.038;2023-07-13T16:40:40;34.90;40.60
30381;DHT22;17169;50.966;11.038;2023-07-13T16:43:43;33.40;41.80
30381;DHT22;17169;50.966;11.038;2023-07-13T16:46:49;32.20;43.20
30381;DHT22;17169;50.966;11.038;2023-07-13T16:49:52;31.50;43.90
30381;DHT22;17169;50.966;11.038;2023-07-13T16:52:59;31.10;44.30
30381;DHT22;17169;50.966;11.038;2023-07-13T16:56:05;31.10;44.50
30381;DHT22;17169;50.966;11.038;2023-07-13T16:59:13;31.00;45.10
30381;DHT22;17169;50.966;11.038;2023-07-13T17:02:31;31.40;44.50
30381;DHT22;17169;50.966;11.038;2023-07-13T17:05:36;30.90;45.60
30381;DHT22;17169;50.966;11.038;2023-07-13T17:08:41;30.40;45.40
30381;DHT22;17169;50.966;11.038;2023-07-13T17:11:44;29.90;46.10
30381;DHT22;17169;50.966;11.038;2023-07-13T17:14:47;29.40;47.30
30381;DHT22;17169;50.966;11.038;2023-07-13T17:17:51;28.90;47.00
30381;DHT22;17169;50.966;11.038;2023-07-13T17:21:06;28.50;47.80
30381;DHT22;17169;50.966;11.038;2023-07-13T17:24:16;28.10;48.30
30381;DHT22;17169;50.966;11.038;2023-07-13T17:27:20;27.90;48.70
30381;DHT22;17169;50.966;11.038;2023-07-13T17:30:28;27.70;48.80
30381;DHT22;17169;50.966;11.038;2023-07-13T17:33:34;27.40;49.30
30381;DHT22;17169;50.966;11.038;2023-07-13T17:36:40;27.00;49.90
30381;DHT22;17169;50.966;11.038;2023-07-13T17:39:43;26.80;50.30
30381;DHT22;17169;50.966;11.038;2023-07-13T17:42:45;26.70;50.50
30381;DHT22;17169;50.966;11.038;2023-07-13T17:45:48;26.70;50.70
30381;DHT22;17169;50.966;11.038;2023-07-13T17:48:52;26.40;51.00
30381;DHT22;17169;50.966;11.038;2023-07-13T17:51:55;26.30;51.50
30381;DHT22;17169;50.966;11.038;2023-07-13T17:54:59;26.10;51.50
30381;DHT22;17169;50.966;11.038;2023-07-13T17:58:03;25.90;51.90
30381;DHT22;17169;50.966;11.038;2023-07-13T18:01:09;25.80;52.20
30381;DHT22;17169;50.966;11.038;2023-07-13T18:04:15;25.80;52.80
30381;DHT22;17169;50.966;11.038;2023-07-13T18:07:23;25.70;52.50
30381;DHT22;17169;50.966;11.038;2023-07-13T18:10:29;25.50;52.80
30381;DHT22;17169;50.966;11.038;2023-07-13T18:13:31;25.40;52.90
30381;DHT22;17169;50.966;11.038;2023-07-13T18:16:44;25.20;53.10
30381;DHT22;17169;50.966;11.038;2023-07-13T18:19:51;25.20;53.40
30381;DHT22;17169;50.966;11.038;2023-07-13T18:22:54;25.10;53.80
30381;DHT22;17169;50.966;11.038;2023-07-13T18:25:56;25.20;53.60
30381;DHT22;17169;50.966;11.038;2023-07-13T18:28:59;25.00;53.60
30381;DHT22;17169;50.966;11.038;2023-07-13T18:32:01;24.90;54.00
30381;DHT22;17169;50.966;11.038;2023-07-13T18:35:12;24.80;54.30
30381;DHT22;17169;50.966;11.038;2023-07-13T18:38:17;24.80;54.40
30381;DHT22;17169;50.966;11.038;2023-07-13T18:41:21;24.70;54.60
30381;DHT22;17169;50.966;11.038;2023-07-13T18:44:24;24.60;54.90
30381;DHT22;17169;50.966;11.038;2023-07-13T18:47:27;24.60;55.10
30381;DHT22;17169;50.966;11.038;2023-07-13T18:50:37;24.50;55.30
30381;DHT22;17169;50.966;11.038;2023-07-13T18:53:42;24.50;55.50
30381;DHT22;17169;50.966;11.038;2023-07-13T18:56:45;24.40;55.70
30381;DHT22;17169;50.966;11.038;2023-07-13T18:59:47;24.30;55.80
30381;DHT22;17169;50.966;11.038;2023-07-13T19:02:50;24.40;56.00
30381;DHT22;17169;50.966;11.038;2023-07-13T19:05:54;24.30;55.70
30381;DHT22;17169;50.966;11.038;2023-07-13T19:08:56;24.30;55.80